createdAt,value
2023-02-15T00:02:03.782Z,61.13
2023-02-15T00:04:47.386Z,59.42
2023-02-15T00:07:16.851Z,68.32
2023-02-15T00:09:46.911Z,97.45
2023-02-15T00:12:14.822Z,76.32
2023-02-15T00:14:43.169Z,114.65
2023-02-15T00:17:10.417Z,59.15
2023-02-15T00:19:38.024Z,58.90
2023-02-15T00:22:05.870Z,99.82
2023-02-15T00:24:33.871Z,63.60
2023-02-15T00:27:01.069Z,58.15
2023-02-15T00:29:29.111Z,59.30
2023-02-15T00:31:56.398Z,93.45
2023-02-15T00:34:27.999Z,91.63
2023-02-15T00:36:57.859Z,85.82
2023-02-15T00:39:25.436Z,101.28
2023-02-15T00:41:52.753Z,68.43
2023-02-15T00:44:20.366Z,74.60
2023-02-15T00:46:47.732Z,131.40
2023-02-15T00:49:15.414Z,98.47
2023-02-15T00:51:42.707Z,81.07
2023-02-15T00:54:10.165Z,58.33
2023-02-15T00:56:37.474Z,83.38
2023-02-15T00:59:05.017Z,69.13
2023-02-15T01:01:32.336Z,80.85
2023-02-15T01:03:59.899Z,79.97
2023-02-15T01:06:30.381Z,88.20
2023-02-15T01:08:57.833Z,71.05
2023-02-15T01:11:25.317Z,86.53
2023-02-15T01:13:58.492Z,80.93
2023-02-15T01:16:28.367Z,85.93
2023-02-15T01:18:56.301Z,73.43
2023-02-15T01:21:25.516Z,65.97
2023-02-15T01:23:53.388Z,59.65
2023-02-15T01:26:20.944Z,63.20
2023-02-15T01:28:48.558Z,63.28
2023-02-15T01:31:20.427Z,57.25
2023-02-15T01:33:49.163Z,67.65
2023-02-15T01:36:18.303Z,63.10
2023-02-15T01:38:46.355Z,59.03
2023-02-15T01:41:24.418Z,74.30
2023-02-15T01:43:58.580Z,73.70
2023-02-15T01:46:36.064Z,71.47
2023-02-15T01:49:15.435Z,65.30
2023-02-15T01:51:44.719Z,65.13
2023-02-15T01:54:18.338Z,76.68
2023-02-15T01:56:46.122Z,66.07
2023-02-15T01:59:24.313Z,73.75
2023-02-15T02:01:55.513Z,65.30
2023-02-15T02:04:34.964Z,71.13
2023-02-15T02:07:03.246Z,71.80
2023-02-15T02:09:33.179Z,66.55
2023-02-15T02:12:01.100Z,73.38
2023-02-15T02:14:29.002Z,76.07
2023-02-15T02:17:11.842Z,73.75
2023-02-15T02:20:16.370Z,70.97
2023-02-15T02:23:08.452Z,68.32
2023-02-15T02:25:41.936Z,67.50
2023-02-15T02:28:46.311Z,75.40
2023-02-15T02:31:32.808Z,77.07
2023-02-15T02:34:06.904Z,68.63
2023-02-15T02:37:08.081Z,77.85
2023-02-15T02:39:57.705Z,69.80
2023-02-15T02:42:40.032Z,66.13
2023-02-15T02:45:29.395Z,70.70
2023-02-15T02:48:28.858Z,73.03
2023-02-15T02:50:56.094Z,69.55
2023-02-15T02:53:23.905Z,75.28
2023-02-15T02:55:59.668Z,58.88
2023-02-15T02:58:42.580Z,72.35
2023-02-15T03:03:51.363Z,78.60
2023-02-15T03:06:36.906Z,68.90
2023-02-15T03:09:45.066Z,73.15
2023-02-15T03:12:16.915Z,72.65
2023-02-15T03:14:52.806Z,62.80
2023-02-15T03:17:26.713Z,56.47
2023-02-15T03:19:57.731Z,65.18
2023-02-15T03:22:31.236Z,64.43
2023-02-15T03:25:07.797Z,67.20
2023-02-15T03:27:46.957Z,66.53
2023-02-15T03:30:16.284Z,66.32
2023-02-15T03:32:45.937Z,65.55
2023-02-15T03:35:13.371Z,64.55
2023-02-15T03:37:49.649Z,58.35
2023-02-15T03:40:56.486Z,61.97
2023-02-15T03:43:41.823Z,65.65
2023-02-15T03:46:33.343Z,67.20
2023-02-15T03:49:11.491Z,67.72
2023-02-15T03:51:41.921Z,73.63
2023-02-15T03:54:40.290Z,57.63
2023-02-15T03:57:29.532Z,33.45
2023-02-15T04:00:15.830Z,40.25
2023-02-15T04:02:59.232Z,43.47
2023-02-15T04:05:26.584Z,27.80
2023-02-15T04:07:54.083Z,29.60
2023-02-15T04:10:39.822Z,27.55
2023-02-15T04:13:07.438Z,28.83
2023-02-15T04:15:53.291Z,26.50
2023-02-15T04:18:20.836Z,38.35
2023-02-15T04:21:06.810Z,33.65
2023-02-15T04:23:52.872Z,41.33
2023-02-15T04:26:20.260Z,37.95
2023-02-15T04:28:47.786Z,39.88
2023-02-15T04:31:14.997Z,38.28
2023-02-15T04:33:44.785Z,38.00
2023-02-15T04:36:12.061Z,36.97
2023-02-15T04:38:39.513Z,41.13
2023-02-15T04:41:06.776Z,40.45
2023-02-15T04:43:34.306Z,42.20
2023-02-15T04:46:01.844Z,39.08
2023-02-15T04:48:29.667Z,40.83
2023-02-15T04:50:56.997Z,33.42
2023-02-15T04:53:24.447Z,31.17
2023-02-15T04:55:51.824Z,32.80
2023-02-15T04:58:19.239Z,37.10
2023-02-15T05:00:46.510Z,30.88
2023-02-15T05:03:14.089Z,32.15
2023-02-15T05:05:41.617Z,32.70
2023-02-15T05:08:09.234Z,31.63
2023-02-15T05:10:36.455Z,32.05
2023-02-15T05:13:03.952Z,30.30
2023-02-15T05:15:31.238Z,31.10
2023-02-15T05:17:58.804Z,33.30
2023-02-15T05:20:26.062Z,29.33
2023-02-15T05:22:56.592Z,41.42
2023-02-15T05:25:42.473Z,36.08
2023-02-15T05:28:21.571Z,29.85
2023-02-15T05:31:03.102Z,33.78
2023-02-15T05:33:30.862Z,33.53
2023-02-15T05:35:58.237Z,39.17
2023-02-15T05:38:25.830Z,39.50
2023-02-15T05:40:53.592Z,33.90
2023-02-15T05:43:21.970Z,41.60
2023-02-15T05:45:51.092Z,53.58
2023-02-15T05:48:19.475Z,57.67
2023-02-15T05:50:46.691Z,38.67
2023-02-15T05:53:14.303Z,47.00
2023-02-15T05:55:42.090Z,42.28
2023-02-15T05:58:09.538Z,41.88
2023-02-15T06:00:38.139Z,39.53
2023-02-15T06:03:05.793Z,38.65
2023-02-15T06:05:33.012Z,35.97
2023-02-15T06:08:00.524Z,37.13
2023-02-15T06:10:27.927Z,36.75
2023-02-15T06:12:55.318Z,40.90
2023-02-15T06:15:22.460Z,44.60
2023-02-15T06:17:49.944Z,40.58
2023-02-15T06:20:17.540Z,49.00
2023-02-15T06:22:45.116Z,45.10
2023-02-15T06:25:12.443Z,42.85
2023-02-15T06:27:43.148Z,38.92
2023-02-15T06:30:11.710Z,38.97
2023-02-15T06:32:39.262Z,42.50
2023-02-15T06:35:06.803Z,44.13
2023-02-15T06:37:34.998Z,38.85
2023-02-15T06:40:03.901Z,50.63
2023-02-15T06:42:31.627Z,47.00
2023-02-15T06:45:00.040Z,45.55
2023-02-15T06:47:27.714Z,50.78
2023-02-15T06:49:54.930Z,57.53
2023-02-15T06:52:22.609Z,66.45
2023-02-15T06:54:49.789Z,66.85
2023-02-15T06:57:17.386Z,59.58
2023-02-15T06:59:44.717Z,50.97
2023-02-15T07:02:13.668Z,58.58
2023-02-15T07:04:41.042Z,55.00
2023-02-15T07:07:12.622Z,50.78
2023-02-15T07:09:40.476Z,46.60
2023-02-15T07:12:27.026Z,47.95
2023-02-15T07:14:54.328Z,47.00
2023-02-15T07:17:35.382Z,51.22
2023-02-15T07:20:06.415Z,46.70
2023-02-15T07:22:35.135Z,49.20
2023-02-15T07:25:03.026Z,50.60
2023-02-15T07:27:31.795Z,51.85
2023-02-15T07:29:59.516Z,51.35
2023-02-15T07:32:34.078Z,48.58
2023-02-15T07:35:01.594Z,54.55
2023-02-15T07:37:29.309Z,51.17
2023-02-15T07:39:56.593Z,48.88
2023-02-15T07:42:24.088Z,51.50
2023-02-15T07:44:53.630Z,45.53
2023-02-15T07:47:21.100Z,46.55
2023-02-15T07:49:50.363Z,37.88
2023-02-15T07:52:17.883Z,47.85
2023-02-15T07:54:45.293Z,47.95
2023-02-15T07:57:12.762Z,39.72
2023-02-15T07:59:40.017Z,40.80
2023-02-15T08:02:13.551Z,42.58
2023-02-15T08:04:40.820Z,41.80
2023-02-15T08:07:08.919Z,46.47
2023-02-15T08:09:36.200Z,42.85
2023-02-15T08:12:05.182Z,38.50
2023-02-15T08:14:33.815Z,48.42
2023-02-15T08:17:06.045Z,47.97
2023-02-15T08:19:33.859Z,46.22
2023-02-15T08:22:08.956Z,46.47
2023-02-15T08:24:38.165Z,48.53
2023-02-15T08:27:07.533Z,63.20
2023-02-15T08:29:36.677Z,51.75
2023-02-15T08:32:10.295Z,59.65
2023-02-15T08:34:42.403Z,49.75
2023-02-15T08:39:37.850Z,57.75
2023-02-15T08:42:05.473Z,58.25
2023-02-15T08:44:32.714Z,57.40
2023-02-15T08:47:05.205Z,51.05
2023-02-15T08:49:32.732Z,59.17
2023-02-15T08:52:00.838Z,72.13
2023-02-15T08:54:30.701Z,64.05
2023-02-15T08:56:58.185Z,60.58
2023-02-15T08:59:27.857Z,49.97
2023-02-15T09:01:56.289Z,53.10
2023-02-15T09:04:23.746Z,50.47
2023-02-15T09:06:52.023Z,60.15
2023-02-15T09:09:20.552Z,52.55
2023-02-15T09:11:54.559Z,56.60
2023-02-15T09:14:25.998Z,51.75
2023-02-15T09:16:54.218Z,57.47
2023-02-15T09:19:23.364Z,61.22
2023-02-15T09:21:51.492Z,58.45
2023-02-15T09:24:19.489Z,63.72
2023-02-15T09:26:48.920Z,71.10
2023-02-15T09:29:17.421Z,71.40
2023-02-15T09:31:47.235Z,77.82
2023-02-15T09:34:19.239Z,73.18
2023-02-15T09:39:16.523Z,70.40
2023-02-15T09:42:02.661Z,70.40
2023-02-15T09:44:48.924Z,66.35
2023-02-15T09:47:43.580Z,68.07
2023-02-15T09:50:32.451Z,61.85
2023-02-15T09:53:22.865Z,58.47
2023-02-15T09:56:02.877Z,53.95
2023-02-15T09:58:52.159Z,64.97
2023-02-15T10:01:48.631Z,51.13
2023-02-15T10:04:27.938Z,55.47
2023-02-15T10:07:18.549Z,50.80
2023-02-15T10:10:01.764Z,52.20
2023-02-15T10:12:41.116Z,59.95
2023-02-15T10:15:25.089Z,54.83
2023-02-15T10:18:27.655Z,62.42
2023-02-15T10:21:22.339Z,59.03
2023-02-15T10:24:26.711Z,59.25
2023-02-15T10:27:03.675Z,55.55
2023-02-15T10:29:37.894Z,56.13
2023-02-15T10:32:11.383Z,57.42
2023-02-15T10:34:40.861Z,51.20
2023-02-15T10:37:27.334Z,53.67
2023-02-15T10:40:00.509Z,53.78
2023-02-15T10:42:52.012Z,59.22
2023-02-15T10:45:32.757Z,57.90
2023-02-15T10:48:35.098Z,57.85
2023-02-15T10:51:06.247Z,57.07
2023-02-15T10:53:42.212Z,61.40
2023-02-15T10:56:32.052Z,63.33
2023-02-15T10:59:02.134Z,72.95
2023-02-15T11:02:08.621Z,69.53
2023-02-15T11:04:54.595Z,74.22
2023-02-15T11:07:42.567Z,70.82
2023-02-15T11:10:34.811Z,65.07
2023-02-15T11:13:15.390Z,61.17
2023-02-15T11:15:49.056Z,68.30
2023-02-15T11:18:48.844Z,71.82
2023-02-15T11:21:25.187Z,64.53
2023-02-15T11:23:53.707Z,69.70
2023-02-15T11:26:33.122Z,67.70
2023-02-15T11:29:14.672Z,72.35
2023-02-15T11:31:49.186Z,73.90
2023-02-15T11:34:34.546Z,64.72
2023-02-15T11:37:28.076Z,71.22
2023-02-15T11:39:55.818Z,67.97
2023-02-15T11:42:26.286Z,76.57
2023-02-15T11:45:32.135Z,65.15
2023-02-15T11:48:01.190Z,68.18
2023-02-15T11:50:33.654Z,78.35
2023-02-15T11:53:05.133Z,70.18
2023-02-15T11:55:34.244Z,83.30
2023-02-15T11:58:30.865Z,63.60
2023-02-15T12:01:24.524Z,74.63
2023-02-15T12:03:56.655Z,72.90
2023-02-15T12:06:32.210Z,74.18
2023-02-15T12:09:23.583Z,72.55
2023-02-15T12:11:51.209Z,67.07
2023-02-15T12:14:19.473Z,73.90
2023-02-15T12:16:50.821Z,76.43
2023-02-15T12:19:53.524Z,78.80
2023-02-15T12:22:32.797Z,74.60
2023-02-15T12:25:03.133Z,64.47
2023-02-15T12:27:38.117Z,67.50
2023-02-15T12:30:25.938Z,62.45
2023-02-15T12:33:06.212Z,69.38
2023-02-15T12:35:37.666Z,71.30
2023-02-15T12:38:22.220Z,79.93
2023-02-15T12:41:21.047Z,73.50
2023-02-15T12:43:48.529Z,76.45
2023-02-15T12:46:27.131Z,73.78
2023-02-15T12:49:21.280Z,77.85
2023-02-15T12:51:53.401Z,72.88
2023-02-15T12:54:23.867Z,79.55
2023-02-15T12:56:52.782Z,75.55
2023-02-15T12:59:23.246Z,75.53
2023-02-15T13:01:54.903Z,80.90
2023-02-15T13:04:30.849Z,81.07
2023-02-15T13:07:03.750Z,81.88
2023-02-15T13:09:35.358Z,74.65
2023-02-15T13:12:17.684Z,81.40
2023-02-15T13:14:47.871Z,78.95
2023-02-15T13:17:18.553Z,77.28
2023-02-15T13:19:55.483Z,77.05
2023-02-15T13:22:38.229Z,78.70
2023-02-15T13:25:24.050Z,80.75
2023-02-15T13:27:59.125Z,76.55
2023-02-15T13:30:33.601Z,70.28
2023-02-15T13:33:07.550Z,76.43
2023-02-15T13:35:48.298Z,72.65
2023-02-15T13:38:44.537Z,82.00
2023-02-15T13:41:39.738Z,85.20
2023-02-15T13:44:11.109Z,81.95
2023-02-15T13:47:27.083Z,88.15
2023-02-15T13:50:28.480Z,75.38
2023-02-15T13:53:12.992Z,76.85
2023-02-15T13:55:45.790Z,77.20
2023-02-15T13:58:32.024Z,85.72
2023-02-15T14:01:08.457Z,81.18
2023-02-15T14:04:01.838Z,93.95
2023-02-15T14:06:51.155Z,82.68
2023-02-15T14:09:38.675Z,86.13
2023-02-15T14:12:09.000Z,89.93
2023-02-15T14:15:13.769Z,87.70
2023-02-15T14:18:19.357Z,82.82
2023-02-15T14:21:10.643Z,83.47
2023-02-15T14:23:43.418Z,82.70
2023-02-15T14:26:39.193Z,77.82
2023-02-15T14:29:09.721Z,82.97
2023-02-15T14:31:45.029Z,77.20
2023-02-15T14:34:38.943Z,84.00
2023-02-15T14:37:06.545Z,82.38
2023-02-15T14:40:12.167Z,74.82
2023-02-15T14:43:05.572Z,74.35
2023-02-15T14:45:51.666Z,76.57
2023-02-15T14:48:31.181Z,73.05
2023-02-15T14:50:59.107Z,67.75
2023-02-15T14:53:39.599Z,72.05
2023-02-15T14:56:22.472Z,72.15
2023-02-15T15:01:32.952Z,75.32
2023-02-15T15:04:12.935Z,86.68
2023-02-15T15:06:44.039Z,70.03
2023-02-15T15:09:29.088Z,85.18
2023-02-15T15:12:16.318Z,84.28
2023-02-15T15:14:46.826Z,76.90
2023-02-15T15:17:34.997Z,82.07
2023-02-15T15:20:08.506Z,73.50
2023-02-15T15:22:37.402Z,70.15
2023-02-15T15:25:34.751Z,85.05
2023-02-15T15:28:04.310Z,79.40
2023-02-15T15:30:31.762Z,81.38
2023-02-15T15:33:37.475Z,84.95
2023-02-15T15:36:37.879Z,90.13
2023-02-15T15:39:35.641Z,81.80
2023-02-15T15:42:18.142Z,79.10
2023-02-15T15:47:31.017Z,77.20
2023-02-15T15:50:00.120Z,77.85
2023-02-15T15:52:29.641Z,94.75
2023-02-15T15:55:04.264Z,80.45
2023-02-15T15:57:37.007Z,90.35
2023-02-15T16:00:26.157Z,82.88
2023-02-15T16:02:58.809Z,85.03
2023-02-15T16:05:26.786Z,91.65
2023-02-15T16:07:54.136Z,98.32
2023-02-15T16:10:27.671Z,93.55
2023-02-15T16:12:56.325Z,83.88
2023-02-15T16:15:31.499Z,76.68
2023-02-15T16:17:59.866Z,84.60
2023-02-15T16:20:30.039Z,85.13
2023-02-15T16:23:45.210Z,88.43
2023-02-15T16:26:45.315Z,87.70
2023-02-15T16:29:27.238Z,102.45
2023-02-15T16:32:03.351Z,91.75
2023-02-15T16:34:33.557Z,96.85
2023-02-15T16:37:15.350Z,103.90
2023-02-15T16:39:44.428Z,97.13
2023-02-15T16:42:14.189Z,101.13
2023-02-15T16:44:42.126Z,94.68
2023-02-15T16:47:20.836Z,98.40
2023-02-15T16:49:51.098Z,90.60
2023-02-15T16:52:25.191Z,103.85
2023-02-15T16:55:01.505Z,97.25
2023-02-15T16:57:36.569Z,105.85
2023-02-15T17:00:15.622Z,102.43
2023-02-15T17:03:04.354Z,94.90
2023-02-15T17:05:47.577Z,98.65
2023-02-15T17:08:17.613Z,93.45
2023-02-15T17:11:14.788Z,105.07
2023-02-15T17:14:06.470Z,97.47
2023-02-15T17:16:42.164Z,100.97
2023-02-15T17:19:16.485Z,98.93
2023-02-15T17:21:49.888Z,99.50
2023-02-15T17:24:27.038Z,91.40
2023-02-15T17:27:01.834Z,97.05
2023-02-15T17:29:37.841Z,108.63
2023-02-15T17:32:07.332Z,96.43
2023-02-15T17:34:43.828Z,107.45
2023-02-15T17:37:35.314Z,101.65
2023-02-15T17:40:21.048Z,104.25
2023-02-15T17:42:48.370Z,102.18
2023-02-15T17:45:16.095Z,103.00
2023-02-15T17:47:43.967Z,98.00
2023-02-15T17:50:37.562Z,98.47
2023-02-15T17:53:08.632Z,94.22
2023-02-15T17:55:36.537Z,107.03
2023-02-15T17:58:07.004Z,102.53
2023-02-15T18:00:57.393Z,104.88
2023-02-15T18:03:48.309Z,97.00
2023-02-15T18:06:34.811Z,104.55
2023-02-15T18:09:20.468Z,95.30
2023-02-15T18:11:51.387Z,105.07
2023-02-15T18:14:18.578Z,103.78
2023-02-15T18:16:46.340Z,106.57
2023-02-15T18:19:19.531Z,97.57
2023-02-15T18:21:47.602Z,103.32
2023-02-15T18:24:21.160Z,98.85
2023-02-15T18:26:49.143Z,110.32
2023-02-15T18:29:16.877Z,110.25
2023-02-15T18:31:47.049Z,101.65
2023-02-15T18:34:29.706Z,98.53
2023-02-15T18:36:58.437Z,96.35
2023-02-15T18:39:26.217Z,99.40
2023-02-15T18:41:54.503Z,102.07
2023-02-15T18:44:21.983Z,100.05
2023-02-15T18:46:49.593Z,101.43
2023-02-15T18:49:16.837Z,99.15
2023-02-15T18:51:44.873Z,102.88
2023-02-15T18:54:24.724Z,102.53
2023-02-15T18:56:58.486Z,110.07
2023-02-15T18:59:28.190Z,98.22
2023-02-15T19:01:57.997Z,105.45
2023-02-15T19:04:25.995Z,110.28
2023-02-15T19:06:54.970Z,118.53
2023-02-15T19:09:24.191Z,104.50
2023-02-15T19:11:54.618Z,111.80
2023-02-15T19:14:30.865Z,113.22
2023-02-15T19:17:00.529Z,117.43
2023-02-15T19:19:28.297Z,114.85
2023-02-15T19:21:56.416Z,114.95
2023-02-15T19:24:30.077Z,116.22
2023-02-15T19:26:57.627Z,115.05
2023-02-15T19:29:30.483Z,111.20
2023-02-15T19:31:58.631Z,121.75
2023-02-15T19:34:26.086Z,120.22
2023-02-15T19:36:55.002Z,121.70
2023-02-15T19:39:32.038Z,121.40
2023-02-15T19:41:59.672Z,121.93
2023-02-15T19:44:26.914Z,121.05
2023-02-15T19:46:54.385Z,124.50
2023-02-15T19:49:21.592Z,126.72
2023-02-15T19:51:49.553Z,126.10
2023-02-15T19:54:31.036Z,123.10
2023-02-15T19:56:59.124Z,134.32
2023-02-15T19:59:34.255Z,133.77
2023-02-15T20:02:02.128Z,129.98
2023-02-15T20:04:29.571Z,132.43
2023-02-15T20:07:01.256Z,127.63
2023-02-15T20:09:35.492Z,132.17
2023-02-15T20:12:03.250Z,132.98
2023-02-15T20:14:30.827Z,120.10
2023-02-15T20:16:58.428Z,123.47
2023-02-15T20:19:25.673Z,120.97
2023-02-15T20:21:54.966Z,115.85
2023-02-15T20:24:25.067Z,133.77
2023-02-15T20:26:52.550Z,125.93
2023-02-15T20:29:20.391Z,122.82
2023-02-15T20:31:48.109Z,127.45
2023-02-15T20:34:15.553Z,125.40
2023-02-15T20:36:43.102Z,111.20
2023-02-15T20:39:20.435Z,117.88
2023-02-15T20:41:48.402Z,122.70
2023-02-15T20:44:21.598Z,127.32
2023-02-15T20:46:51.306Z,124.63
2023-02-15T20:49:18.683Z,125.65
2023-02-15T20:51:47.583Z,120.40
2023-02-15T20:54:17.788Z,111.55
2023-02-15T20:56:46.729Z,117.00
2023-02-15T20:59:23.963Z,117.28
2023-02-15T21:01:56.726Z,109.00
2023-02-15T21:06:53.979Z,123.30
2023-02-15T21:09:21.271Z,119.57
2023-02-15T21:11:52.138Z,115.45
2023-02-15T21:14:22.279Z,121.93
2023-02-15T21:16:51.503Z,127.47
2023-02-15T21:19:22.246Z,122.55
2023-02-15T21:21:52.752Z,131.35
2023-02-15T21:24:25.698Z,133.77
2023-02-15T21:26:54.009Z,126.60
2023-02-15T21:29:23.909Z,136.25
2023-02-15T21:31:51.637Z,124.55
2023-02-15T21:34:19.429Z,122.65
2023-02-15T21:36:50.579Z,125.80
2023-02-15T21:39:27.370Z,132.13
2023-02-15T21:42:14.905Z,134.93
2023-02-15T21:45:01.405Z,128.60
2023-02-15T21:47:49.899Z,131.18
2023-02-15T21:50:42.027Z,129.05
2023-02-15T21:53:33.537Z,126.40
2023-02-15T21:56:04.696Z,135.57
2023-02-15T21:58:35.397Z,124.35
2023-02-15T22:01:05.533Z,135.13
2023-02-15T22:03:36.849Z,130.68
2023-02-15T22:06:05.510Z,124.70
2023-02-15T22:08:34.418Z,127.45
2023-02-15T22:11:02.080Z,121.88
2023-02-15T22:13:32.416Z,134.68
2023-02-15T22:16:00.119Z,132.73
2023-02-15T22:18:33.369Z,132.15
2023-02-15T22:21:03.114Z,131.30
2023-02-15T22:23:31.152Z,132.90
2023-02-15T22:26:02.998Z,135.07
2023-02-15T22:28:41.552Z,128.27
2023-02-15T22:31:14.635Z,140.13
2023-02-15T22:33:44.112Z,125.38
2023-02-15T22:36:29.649Z,132.88
2023-02-15T22:38:57.733Z,137.88
2023-02-15T22:41:29.230Z,129.18
2023-02-15T22:43:57.450Z,128.43
2023-02-15T22:46:26.092Z,141.75
2023-02-15T22:48:54.135Z,144.07
2023-02-15T22:51:23.918Z,139.40
2023-02-15T22:53:52.388Z,200.95
2023-02-15T22:56:26.727Z,189.27
2023-02-15T22:59:02.121Z,200.55
2023-02-15T23:01:34.836Z,153.93
2023-02-15T23:04:04.073Z,152.90
2023-02-15T23:06:34.301Z,139.60
2023-02-15T23:09:02.156Z,135.15
2023-02-15T23:11:29.490Z,138.15
2023-02-15T23:13:57.616Z,143.48
2023-02-15T23:16:24.847Z,175.02
2023-02-15T23:18:52.313Z,148.80
2023-02-15T23:21:31.768Z,159.25
2023-02-15T23:24:26.473Z,148.55
2023-02-15T23:26:54.214Z,146.38
2023-02-15T23:29:23.429Z,141.43
2023-02-15T23:31:53.256Z,136.95
2023-02-15T23:34:24.298Z,167.23
2023-02-15T23:36:51.494Z,153.88
2023-02-15T23:39:43.644Z,145.25
2023-02-15T23:42:21.712Z,139.13
2023-02-15T23:44:49.380Z,146.15
2023-02-15T23:47:21.447Z,147.40
2023-02-15T23:49:48.968Z,151.82
2023-02-15T23:52:16.131Z,140.48
2023-02-15T23:54:43.688Z,146.95
2023-02-15T23:57:12.919Z,138.00
2023-02-15T23:59:43.459Z,141.65
